In Rescue
 
Open Full Screen Window  High Contrast Mode
Wind Gusting 14 knots
09
October 25, 2021 2:46 PM CDT
Weather Information
Wind Direction
  150 °
Wind Speed
  09 kt (10 mph)
Wind Gust
  14 kt (16 mph)
Altimeter
30.12 in
Visibility
10 SM
Temperature
10° C
50° F
Dewpoint
-01° C
30° F
Humidity
47%
1hr Rain Fall
00.00 in.
24hr Rain Fall
00.00 in.
Sky Condition
Clear
VFR

METAR K3N8 251946Z AUTO 15009G14KT 10SM CLR 10/M01 A3012 RMK AO2 T00971013

FAA Disclaimer: The data displayed is for advisory purposes only and is not to be used for flight planning or operations.